createdAt,value
2019-05-10T00:00:31.827Z,3.20
2019-05-10T00:01:31.816Z,2.80
2019-05-10T00:02:31.830Z,2.80
2019-05-10T00:03:31.774Z,3.50
2019-05-10T00:04:31.814Z,2.70
2019-05-10T00:05:31.742Z,2.90
2019-05-10T00:06:31.716Z,3.00
2019-05-10T00:07:31.695Z,2.80
2019-05-10T00:08:31.700Z,2.80
2019-05-10T00:09:31.659Z,2.80
2019-05-10T00:10:31.703Z,2.90
2019-05-10T00:11:31.643Z,2.80
2019-05-10T00:12:31.614Z,2.70
2019-05-10T00:13:31.583Z,2.60
2019-05-10T00:14:31.571Z,2.90
2019-05-10T00:15:31.545Z,2.80
2019-05-10T00:16:31.543Z,3.00
2019-05-10T00:17:31.507Z,3.10
2019-05-10T00:18:31.502Z,3.00
2019-05-10T00:19:31.468Z,2.70
2019-05-10T00:20:31.447Z,3.30
2019-05-10T00:21:31.429Z,2.70
2019-05-10T00:22:31.409Z,3.00
2019-05-10T00:23:31.422Z,2.80
2019-05-10T00:24:31.365Z,2.80
2019-05-10T00:25:31.355Z,3.20
2019-05-10T00:26:31.330Z,2.80
2019-05-10T00:27:31.314Z,2.90
2019-05-10T00:28:31.323Z,3.10
2019-05-10T00:29:31.294Z,2.70
2019-05-10T00:30:31.269Z,3.00
2019-05-10T00:31:31.238Z,2.70
2019-05-10T00:32:31.212Z,2.70
2019-05-10T00:33:31.193Z,2.90
2019-05-10T00:34:31.175Z,2.90
2019-05-10T00:35:31.196Z,3.30
2019-05-10T00:36:31.142Z,2.90
2019-05-10T00:37:31.116Z,2.90
2019-05-10T00:38:31.098Z,3.20
2019-05-10T00:39:31.077Z,3.00
2019-05-10T00:40:31.074Z,3.40
2019-05-10T00:41:31.039Z,2.70
2019-05-10T00:42:31.019Z,3.10
2019-05-10T00:43:31.001Z,2.90
2019-05-10T00:44:30.997Z,2.80
2019-05-10T00:45:30.958Z,2.90
2019-05-10T00:46:30.939Z,3.10
2019-05-10T00:47:30.922Z,2.90
2019-05-10T00:48:30.904Z,2.50
2019-05-10T00:49:30.886Z,2.80
2019-05-10T00:50:30.891Z,2.70
2019-05-10T00:51:30.841Z,2.90
2019-05-10T00:52:30.824Z,3.10
2019-05-10T00:53:30.802Z,3.10
2019-05-10T00:54:30.785Z,3.40
2019-05-10T00:55:30.765Z,3.00
2019-05-10T00:56:30.764Z,2.70
2019-05-10T00:57:30.728Z,3.00
2019-05-10T00:58:30.708Z,2.70
2019-05-10T00:59:30.686Z,2.90
2019-05-10T01:00:30.673Z,2.80
2019-05-10T01:01:30.667Z,2.90
2019-05-10T01:02:30.652Z,2.80
2019-05-10T01:03:30.650Z,3.10
2019-05-10T01:04:30.667Z,2.40
2019-05-10T01:05:30.609Z,2.90
2019-05-10T01:06:30.555Z,3.10
2019-05-10T01:07:30.537Z,2.70
2019-05-10T01:08:30.534Z,2.70
2019-05-10T01:09:30.501Z,2.80
2019-05-10T01:10:30.477Z,2.50
2019-05-10T01:11:30.690Z,2.40
2019-05-10T01:12:30.446Z,2.60
2019-05-10T01:13:30.422Z,3.10
2019-05-10T01:14:30.417Z,2.80
2019-05-10T01:15:30.400Z,2.70
2019-05-10T01:16:30.362Z,2.80
2019-05-10T01:17:30.345Z,3.00
2019-05-10T01:18:30.324Z,2.60
2019-05-10T01:19:30.315Z,3.00
2019-05-10T01:20:30.279Z,2.80
2019-05-10T01:21:30.277Z,2.60
2019-05-10T01:22:30.242Z,2.60
2019-05-10T01:23:30.225Z,2.70
2019-05-10T01:24:30.222Z,2.80
2019-05-10T01:25:35.043Z,2.80
2019-05-10T01:26:30.184Z,2.90
2019-05-10T01:27:30.144Z,2.70
2019-05-10T01:28:30.123Z,2.70
2019-05-10T01:29:30.105Z,2.70
2019-05-10T01:30:30.107Z,2.90
2019-05-10T01:31:30.060Z,3.00
2019-05-10T01:32:30.052Z,2.60
2019-05-10T01:33:30.030Z,2.90
2019-05-10T01:34:30.013Z,2.90
2019-05-10T01:35:29.988Z,3.10
2019-05-10T01:36:29.986Z,2.70
2019-05-10T01:37:29.954Z,2.90
2019-05-10T01:38:29.991Z,3.00
2019-05-10T01:39:29.913Z,2.70
2019-05-10T01:40:29.899Z,2.80
2019-05-10T01:41:29.888Z,2.80
2019-05-10T01:42:29.855Z,2.80
2019-05-10T01:43:29.836Z,3.30
2019-05-10T01:44:29.834Z,3.00
2019-05-10T01:45:29.794Z,2.90
2019-05-10T01:46:29.775Z,3.00
2019-05-10T01:47:29.773Z,3.20
2019-05-10T01:48:29.733Z,2.70
2019-05-10T01:49:29.745Z,3.20
2019-05-10T01:50:29.694Z,3.00
2019-05-10T01:51:29.678Z,3.20
2019-05-10T01:52:29.659Z,3.00
2019-05-10T01:53:29.635Z,2.90
2019-05-10T01:54:29.635Z,2.60
2019-05-10T01:55:29.621Z,2.80
2019-05-10T01:56:29.576Z,2.70
2019-05-10T01:57:29.564Z,3.00
2019-05-10T01:58:29.546Z,2.80
2019-05-10T01:59:29.565Z,2.90
2019-05-10T02:00:29.501Z,2.80
2019-05-10T02:01:29.498Z,2.50
2019-05-10T02:02:29.483Z,2.90
2019-05-10T02:03:29.439Z,2.60
2019-05-10T02:04:29.473Z,3.00
2019-05-10T02:05:29.408Z,2.50
2019-05-10T02:06:29.390Z,2.80
2019-05-10T02:07:29.386Z,2.60
2019-05-10T02:08:29.349Z,3.20
2019-05-10T02:09:33.077Z,3.00
2019-05-10T02:10:29.310Z,2.80
2019-05-10T02:11:29.291Z,3.00
2019-05-10T02:12:29.363Z,2.70
2019-05-10T02:13:29.261Z,3.00
2019-05-10T02:14:29.240Z,3.20
2019-05-10T02:15:29.211Z,3.00
2019-05-10T02:16:29.193Z,2.90
2019-05-10T02:17:29.176Z,2.80
2019-05-10T02:18:29.168Z,2.80
2019-05-10T02:19:29.134Z,2.90
2019-05-10T02:20:29.115Z,2.90
2019-05-10T02:21:29.099Z,2.80
2019-05-10T02:22:29.073Z,2.90
2019-05-10T02:23:29.073Z,2.80
2019-05-10T02:24:29.039Z,2.90
2019-05-10T02:25:29.020Z,2.80
2019-05-10T02:26:29.000Z,2.90
2019-05-10T02:27:28.997Z,2.80
2019-05-10T02:28:28.959Z,2.70
2019-05-10T02:29:28.941Z,2.60
2019-05-10T02:30:28.918Z,3.00
2019-05-10T02:31:28.926Z,2.60
2019-05-10T02:32:28.885Z,3.00
2019-05-10T02:33:28.881Z,2.90
2019-05-10T02:34:28.845Z,2.80
2019-05-10T02:35:28.833Z,3.30
2019-05-10T02:36:28.825Z,3.00
2019-05-10T02:37:28.823Z,2.90
2019-05-10T02:38:28.769Z,2.60
2019-05-10T02:39:28.744Z,3.20
2019-05-10T02:40:28.725Z,2.70
2019-05-10T02:41:28.706Z,2.90
2019-05-10T02:42:28.710Z,2.80
2019-05-10T02:43:28.671Z,3.10
2019-05-10T02:44:28.652Z,3.10
2019-05-10T02:45:28.640Z,3.00
2019-05-10T02:46:28.610Z,2.80
2019-05-10T02:47:28.586Z,3.30
2019-05-10T02:48:28.588Z,3.20
2019-05-10T02:49:28.556Z,2.80
2019-05-10T02:50:28.540Z,3.00
2019-05-10T02:51:28.513Z,3.10
2019-05-10T02:52:28.502Z,3.20
2019-05-10T02:53:28.505Z,3.00
2019-05-10T02:54:28.466Z,2.90
2019-05-10T02:55:28.446Z,3.40
2019-05-10T02:56:30.993Z,3.10
2019-05-10T02:57:28.399Z,3.40
2019-05-10T02:58:28.382Z,3.10
2019-05-10T02:59:28.376Z,3.30
2019-05-10T03:00:28.357Z,3.20
2019-05-10T03:01:28.346Z,3.40
2019-05-10T03:02:28.311Z,3.50
2019-05-10T03:03:28.280Z,3.20
2019-05-10T03:04:28.277Z,3.30
2019-05-10T03:05:28.261Z,3.10
2019-05-10T03:06:28.327Z,3.50
2019-05-10T03:07:28.204Z,3.20
2019-05-10T03:08:28.185Z,3.40
2019-05-10T03:09:28.233Z,3.90
2019-05-10T03:10:28.167Z,3.60
2019-05-10T03:11:28.168Z,3.30
2019-05-10T03:12:28.123Z,3.70
2019-05-10T03:13:28.102Z,3.40
2019-05-10T03:14:28.079Z,3.80
2019-05-10T03:15:28.087Z,3.90
2019-05-10T03:16:28.033Z,3.90
2019-05-10T03:17:28.026Z,3.70
2019-05-10T03:18:27.994Z,3.80
2019-05-10T03:19:27.972Z,4.00
2019-05-10T03:20:27.957Z,3.60
2019-05-10T03:21:27.942Z,4.00
2019-05-10T03:22:27.917Z,4.10
2019-05-10T03:23:27.911Z,4.40
2019-05-10T03:24:28.305Z,3.70
2019-05-10T03:25:27.855Z,4.00
2019-05-10T03:26:27.838Z,4.20
2019-05-10T03:27:27.814Z,4.40
2019-05-10T03:28:27.798Z,3.90
2019-05-10T03:29:27.792Z,4.10
2019-05-10T03:30:27.759Z,4.30
2019-05-10T03:31:27.758Z,4.20
2019-05-10T03:32:27.725Z,4.10
2019-05-10T03:33:27.703Z,5.00
2019-05-10T03:34:27.707Z,4.50
2019-05-10T03:35:27.678Z,4.20
2019-05-10T03:36:27.641Z,4.50
2019-05-10T03:37:27.616Z,4.90
2019-05-10T03:38:27.602Z,4.50
2019-05-10T03:39:27.595Z,4.40
2019-05-10T03:40:27.585Z,4.40
2019-05-10T03:41:27.547Z,4.30
2019-05-10T03:42:27.529Z,4.70
2019-05-10T03:43:27.502Z,4.30
2019-05-10T03:44:27.484Z,4.80
2019-05-10T03:45:27.602Z,4.70
2019-05-10T03:46:27.468Z,5.40
2019-05-10T03:47:27.431Z,4.90
2019-05-10T03:48:27.401Z,4.90
2019-05-10T03:49:27.384Z,5.10
2019-05-10T03:50:27.382Z,5.20
2019-05-10T03:51:27.347Z,4.90
2019-05-10T03:52:27.335Z,5.10
2019-05-10T03:53:27.305Z,5.40
2019-05-10T03:54:27.298Z,5.30
2019-05-10T03:55:27.267Z,5.00
2019-05-10T03:56:29.919Z,5.40
2019-05-10T03:57:27.226Z,5.10
2019-05-10T03:58:27.210Z,5.40
2019-05-10T03:59:27.194Z,5.30
2019-05-10T04:00:27.184Z,5.60
2019-05-10T04:01:27.153Z,5.40
2019-05-10T04:02:27.154Z,5.10
2019-05-10T04:03:27.115Z,5.50
2019-05-10T04:04:27.104Z,5.10
2019-05-10T04:05:27.071Z,5.80
2019-05-10T04:06:27.048Z,5.60
2019-05-10T04:07:27.029Z,5.60
2019-05-10T04:08:27.037Z,5.50
2019-05-10T04:09:27.002Z,6.00
2019-05-10T04:10:26.975Z,5.60
2019-05-10T04:11:26.950Z,5.60
2019-05-10T04:12:26.936Z,6.40
2019-05-10T04:13:26.945Z,5.80
2019-05-10T04:14:26.915Z,5.90
2019-05-10T04:15:26.877Z,5.60
2019-05-10T04:16:26.857Z,5.50
2019-05-10T04:17:26.830Z,5.70
2019-05-10T04:18:26.824Z,5.70
2019-05-10T04:19:26.792Z,6.40
2019-05-10T04:20:26.796Z,5.30
2019-05-10T04:21:26.762Z,6.20
2019-05-10T04:22:26.735Z,5.60
2019-05-10T04:23:26.753Z,6.30
2019-05-10T04:24:26.701Z,6.00
2019-05-10T04:25:26.677Z,5.90
2019-05-10T04:26:26.723Z,6.00
2019-05-10T04:27:32.041Z,6.10
2019-05-10T04:28:26.619Z,6.10
2019-05-10T04:29:26.597Z,6.70
2019-05-10T04:30:31.378Z,6.40
2019-05-10T04:31:26.561Z,6.50
2019-05-10T04:32:26.554Z,5.60
2019-05-10T04:33:26.517Z,6.20
2019-05-10T04:34:26.500Z,6.00
2019-05-10T04:35:26.480Z,6.30
2019-05-10T04:36:26.475Z,6.00
2019-05-10T04:37:26.456Z,6.70
2019-05-10T04:38:26.420Z,5.80
2019-05-10T04:39:26.397Z,5.80
2019-05-10T04:40:26.383Z,5.60
2019-05-10T04:41:28.297Z,6.10
2019-05-10T04:42:26.361Z,6.20
2019-05-10T04:43:26.336Z,6.30
2019-05-10T04:44:26.297Z,5.80
2019-05-10T04:45:26.280Z,6.10
2019-05-10T04:46:26.259Z,6.50
2019-05-10T04:47:26.238Z,6.50
2019-05-10T04:48:26.246Z,5.70
2019-05-10T04:49:26.203Z,6.30
2019-05-10T04:50:26.189Z,6.30
2019-05-10T04:51:26.202Z,6.20
2019-05-10T04:52:26.145Z,6.10
2019-05-10T04:53:26.128Z,5.90
2019-05-10T04:54:26.153Z,6.50
2019-05-10T04:55:26.107Z,6.40
2019-05-10T04:56:26.084Z,6.30
2019-05-10T04:57:26.048Z,7.30
2019-05-10T04:58:26.029Z,6.00
2019-05-10T04:59:26.009Z,6.50
2019-05-10T05:00:25.986Z,6.40
2019-05-10T05:01:26.038Z,6.40
2019-05-10T05:02:26.068Z,6.60
2019-05-10T05:03:25.924Z,6.70
2019-05-10T05:04:25.911Z,6.30
2019-05-10T05:05:25.900Z,6.30
2019-05-10T05:06:25.872Z,7.00
2019-05-10T05:07:25.878Z,6.30
2019-05-10T05:08:25.833Z,7.10
2019-05-10T05:09:25.830Z,7.00
2019-05-10T05:10:25.797Z,6.00
2019-05-10T05:11:25.768Z,7.10
2019-05-10T05:12:26.805Z,6.70
2019-05-10T05:13:25.783Z,6.70
2019-05-10T05:14:25.713Z,6.80
2019-05-10T05:15:25.694Z,6.50
2019-05-10T05:16:25.682Z,6.60
2019-05-10T05:17:25.658Z,6.90
2019-05-10T05:18:25.637Z,6.50
2019-05-10T05:19:25.633Z,7.30
2019-05-10T05:20:25.625Z,6.50
2019-05-10T05:21:25.578Z,6.40
2019-05-10T05:22:25.565Z,6.70
2019-05-10T05:23:25.539Z,6.60
2019-05-10T05:24:25.557Z,6.80
2019-05-10T05:25:25.501Z,7.10
2019-05-10T05:26:25.488Z,7.10
2019-05-10T05:27:25.462Z,6.90
2019-05-10T05:28:25.442Z,6.60
2019-05-10T05:29:25.435Z,7.10
2019-05-10T05:30:25.418Z,7.40
2019-05-10T05:31:25.401Z,6.80
2019-05-10T05:32:25.368Z,7.30
2019-05-10T05:33:25.351Z,6.90
2019-05-10T05:34:25.385Z,7.20
2019-05-10T05:35:25.321Z,6.90
2019-05-10T05:36:25.309Z,6.80
2019-05-10T05:37:25.284Z,6.90
2019-05-10T05:38:25.256Z,6.60
2019-05-10T05:39:25.239Z,6.80
2019-05-10T05:40:25.242Z,7.90
2019-05-10T05:41:25.196Z,6.80
2019-05-10T05:42:27.923Z,6.60
2019-05-10T05:43:25.163Z,7.30
2019-05-10T05:44:26.066Z,7.30
2019-05-10T05:45:28.367Z,7.00
2019-05-10T05:46:25.121Z,7.40
2019-05-10T05:47:25.102Z,7.40
2019-05-10T05:48:39.429Z,7.40
2019-05-10T05:49:25.043Z,7.50
2019-05-10T05:50:25.039Z,6.80
2019-05-10T05:51:24.998Z,6.70
2019-05-10T05:52:24.980Z,6.90
2019-05-10T05:53:24.963Z,6.80
2019-05-10T05:54:24.987Z,7.00
2019-05-10T05:55:30.774Z,6.60
2019-05-10T05:56:24.918Z,7.00
2019-05-10T05:57:27.602Z,6.80
2019-05-10T05:58:27.156Z,7.20
2019-05-10T05:59:26.259Z,6.80
2019-05-10T06:00:24.829Z,6.50
2019-05-10T06:01:28.831Z,7.10
2019-05-10T06:02:24.812Z,7.20
2019-05-10T06:03:29.386Z,7.30
2019-05-10T06:04:24.747Z,8.00
2019-05-10T06:05:34.148Z,7.50
2019-05-10T06:06:24.720Z,7.00
2019-05-10T06:07:25.314Z,7.00
2019-05-10T06:08:25.161Z,6.80
2019-05-10T06:09:24.683Z,7.00
2019-05-10T06:10:24.639Z,7.00
2019-05-10T06:11:24.637Z,7.30
2019-05-10T06:12:24.616Z,6.90
2019-05-10T06:13:30.529Z,7.40
2019-05-10T06:14:24.560Z,7.10
2019-05-10T06:15:28.919Z,7.00
2019-05-10T06:16:24.522Z,6.90
2019-05-10T06:17:29.383Z,6.80
2019-05-10T06:18:25.347Z,6.70
2019-05-10T06:19:29.510Z,6.60
2019-05-10T06:20:24.444Z,6.70
2019-05-10T06:21:26.704Z,6.60
2019-05-10T06:22:24.422Z,7.00
2019-05-10T06:23:29.173Z,7.00
2019-05-10T06:24:24.376Z,6.70
2019-05-10T06:25:38.104Z,7.00
2019-05-10T06:26:28.527Z,7.40
2019-05-10T06:27:24.306Z,6.80
2019-05-10T06:28:28.949Z,6.90
2019-05-10T06:29:24.268Z,6.80
2019-05-10T06:30:24.271Z,6.90
2019-05-10T06:31:24.229Z,6.40
2019-05-10T06:32:24.211Z,7.30
2019-05-10T06:33:24.194Z,6.70
2019-05-10T06:34:24.174Z,6.60
2019-05-10T06:35:24.156Z,6.80
2019-05-10T06:36:24.166Z,6.90
2019-05-10T06:37:24.111Z,7.20
2019-05-10T06:38:24.097Z,7.20
2019-05-10T06:39:24.080Z,6.90
2019-05-10T06:40:33.560Z,7.00
2019-05-10T06:41:24.036Z,6.90
2019-05-10T06:42:28.749Z,7.10
2019-05-10T06:43:24.002Z,7.50
2019-05-10T06:44:25.114Z,7.20
2019-05-10T06:45:23.960Z,7.60
2019-05-10T06:46:29.223Z,7.10
2019-05-10T06:47:23.919Z,7.30
2019-05-10T06:48:29.601Z,7.10
2019-05-10T06:49:23.886Z,7.10
2019-05-10T06:50:30.064Z,7.30
2019-05-10T06:51:23.843Z,7.00
2019-05-10T06:52:27.826Z,7.20
2019-05-10T06:53:23.809Z,6.80
2019-05-10T06:54:23.789Z,7.10
2019-05-10T06:55:23.774Z,7.20
2019-05-10T06:56:23.768Z,7.40
2019-05-10T06:57:23.747Z,7.60
2019-05-10T06:58:23.716Z,7.50
2019-05-10T06:59:24.738Z,8.20
2019-05-10T07:00:23.673Z,7.90
2019-05-10T07:01:23.649Z,7.40
2019-05-10T07:02:26.629Z,7.40
2019-05-10T07:03:23.642Z,7.50
2019-05-10T07:04:23.598Z,8.30
2019-05-10T07:05:23.577Z,8.60
2019-05-10T07:06:23.562Z,8.40
2019-05-10T07:07:42.605Z,7.90
2019-05-10T07:08:23.523Z,8.10
2019-05-10T07:09:23.519Z,8.10
2019-05-10T07:10:25.420Z,8.60
2019-05-10T07:11:23.491Z,8.40
2019-05-10T07:12:23.456Z,8.40
2019-05-10T07:13:23.434Z,8.30
2019-05-10T07:14:27.138Z,8.40
2019-05-10T07:15:23.394Z,9.00
2019-05-10T07:16:25.565Z,8.60
2019-05-10T07:17:23.866Z,8.40
2019-05-10T07:18:24.279Z,8.30
2019-05-10T07:19:23.314Z,8.80
2019-05-10T07:20:23.560Z,8.80
2019-05-10T07:21:23.282Z,8.60
2019-05-10T07:22:27.238Z,9.10
2019-05-10T07:23:23.236Z,8.70
2019-05-10T07:24:24.921Z,8.60
2019-05-10T07:25:23.206Z,9.00
2019-05-10T07:26:26.322Z,8.80
2019-05-10T07:27:23.159Z,9.10
2019-05-10T07:28:23.151Z,8.70
2019-05-10T07:29:30.078Z,9.30
2019-05-10T07:30:23.105Z,9.40
2019-05-10T07:31:23.818Z,9.30
2019-05-10T07:32:24.588Z,8.70
2019-05-10T07:33:23.064Z,9.10
2019-05-10T07:34:23.029Z,9.70
2019-05-10T07:35:23.016Z,9.90
2019-05-10T07:36:27.466Z,9.30
2019-05-10T07:37:22.975Z,9.20
2019-05-10T07:38:23.886Z,9.10
2019-05-10T07:39:22.934Z,9.10
2019-05-10T07:40:22.935Z,9.50
2019-05-10T07:41:26.318Z,9.70
2019-05-10T07:42:22.897Z,9.70
2019-05-10T07:43:26.281Z,9.30
2019-05-10T07:44:22.864Z,9.50
2019-05-10T07:45:25.608Z,9.50
2019-05-10T07:46:22.810Z,9.90
2019-05-10T07:47:24.094Z,10.00
2019-05-10T07:48:23.354Z,9.30
2019-05-10T07:49:23.842Z,9.60
2019-05-10T07:50:22.751Z,9.50
2019-05-10T07:51:28.100Z,9.30
2019-05-10T07:52:22.719Z,9.80
2019-05-10T07:53:25.092Z,10.40
2019-05-10T07:54:22.672Z,9.90
2019-05-10T07:55:28.078Z,9.80
2019-05-10T07:56:22.642Z,9.60
2019-05-10T07:57:24.936Z,10.30
2019-05-10T07:58:22.600Z,10.30
2019-05-10T07:59:28.025Z,10.30
2019-05-10T08:00:25.364Z,10.60
2019-05-10T08:01:32.290Z,10.00
2019-05-10T08:02:22.513Z,10.00
2019-05-10T08:03:23.852Z,10.40
2019-05-10T08:04:28.918Z,10.10
2019-05-10T08:05:22.459Z,10.60
2019-05-10T08:06:22.456Z,10.50
2019-05-10T08:07:22.430Z,10.60
2019-05-10T08:08:22.404Z,9.80
2019-05-10T08:09:22.391Z,10.60
2019-05-10T08:10:22.380Z,10.00
2019-05-10T08:11:22.362Z,9.70
2019-05-10T08:12:22.333Z,9.70
2019-05-10T08:13:25.054Z,9.10
2019-05-10T08:14:25.295Z,9.50
2019-05-10T08:15:24.732Z,9.10
2019-05-10T08:16:23.057Z,9.10
2019-05-10T08:17:22.254Z,8.40
2019-05-10T08:18:25.357Z,8.20
2019-05-10T08:19:22.229Z,8.10
2019-05-10T08:20:38.297Z,8.20
2019-05-10T08:21:26.268Z,8.40
2019-05-10T08:22:22.916Z,8.20
2019-05-10T08:23:23.766Z,7.80
2019-05-10T08:24:22.326Z,8.20
2019-05-10T08:25:23.048Z,8.40
2019-05-10T08:26:24.689Z,8.30
2019-05-10T08:27:23.000Z,7.80
2019-05-10T08:28:22.822Z,8.00
2019-05-10T08:29:22.491Z,7.60
2019-05-10T08:30:28.758Z,7.80
2019-05-10T08:31:25.967Z,7.30
2019-05-10T08:32:25.566Z,8.00
2019-05-10T08:33:22.884Z,7.70
2019-05-10T08:34:22.765Z,7.60
2019-05-10T08:35:21.945Z,7.50
2019-05-10T08:36:22.017Z,7.20
2019-05-10T08:37:33.144Z,7.00
2019-05-10T08:38:22.015Z,7.10
2019-05-10T08:39:22.433Z,7.00
2019-05-10T08:40:25.935Z,7.70
2019-05-10T08:41:22.320Z,7.60
2019-05-10T08:42:37.719Z,8.00
2019-05-10T08:43:24.330Z,6.80
2019-05-10T08:44:23.919Z,7.90
2019-05-10T08:45:22.663Z,7.20
2019-05-10T08:46:29.153Z,7.70
2019-05-10T08:47:26.837Z,8.20
2019-05-10T08:48:23.346Z,7.50
2019-05-10T08:49:25.215Z,8.10
2019-05-10T08:50:43.581Z,8.30
2019-05-10T08:51:22.758Z,7.50
2019-05-10T08:52:26.922Z,7.40
2019-05-10T08:53:23.080Z,7.90
2019-05-10T08:54:22.502Z,8.00
2019-05-10T08:55:22.633Z,7.60
2019-05-10T08:56:24.077Z,7.70
2019-05-10T08:57:22.279Z,7.50
2019-05-10T08:58:31.055Z,7.40
2019-05-10T08:59:26.469Z,7.10
2019-05-10T09:00:38.362Z,7.10
2019-05-10T09:01:29.663Z,7.30
2019-05-10T09:02:28.918Z,7.40
2019-05-10T09:03:22.710Z,7.50
2019-05-10T09:04:22.204Z,6.90
2019-05-10T09:05:29.226Z,6.60
2019-05-10T09:06:22.023Z,7.70
2019-05-10T09:07:23.286Z,6.20
2019-05-10T09:08:24.406Z,6.80
2019-05-10T09:09:22.790Z,7.20
2019-05-10T09:10:22.072Z,6.90
2019-05-10T09:11:23.142Z,7.20
2019-05-10T09:12:23.094Z,7.20
2019-05-10T09:13:22.855Z,7.40
2019-05-10T09:14:24.031Z,7.50
2019-05-10T09:15:22.275Z,6.90
2019-05-10T09:16:23.729Z,6.80
2019-05-10T09:17:23.636Z,7.50
2019-05-10T09:18:22.877Z,7.00
2019-05-10T09:19:28.276Z,6.90
2019-05-10T09:20:26.226Z,7.20
2019-05-10T09:21:22.352Z,7.40
2019-05-10T09:22:24.065Z,7.30
2019-05-10T09:23:22.779Z,7.90
2019-05-10T09:24:22.845Z,7.70
2019-05-10T09:25:29.263Z,7.30
2019-05-10T09:26:22.752Z,7.40
2019-05-10T09:27:22.424Z,7.30
2019-05-10T09:28:21.910Z,7.20
2019-05-10T09:29:21.909Z,7.20
2019-05-10T09:30:21.983Z,7.30
2019-05-10T09:31:25.292Z,7.30
2019-05-10T09:32:28.654Z,7.30
2019-05-10T09:33:22.396Z,7.00
2019-05-10T09:34:23.779Z,6.70
2019-05-10T09:35:22.166Z,7.40
2019-05-10T09:36:23.062Z,7.10
2019-05-10T09:37:22.466Z,7.00
2019-05-10T09:38:22.126Z,6.90
2019-05-10T09:39:24.314Z,6.90
2019-05-10T09:40:21.965Z,6.50
2019-05-10T09:41:22.662Z,6.00
2019-05-10T09:42:26.771Z,6.50
2019-05-10T09:43:23.583Z,6.40
2019-05-10T09:44:22.764Z,5.90
2019-05-10T09:45:24.156Z,5.80
2019-05-10T09:46:22.774Z,6.20
2019-05-10T09:47:22.178Z,6.00
2019-05-10T09:48:22.813Z,6.40
2019-05-10T09:49:23.003Z,6.60
2019-05-10T09:50:22.802Z,6.30
2019-05-10T09:51:27.966Z,5.70
2019-05-10T09:52:20.528Z,6.30
2019-05-10T09:53:26.155Z,6.10
2019-05-10T09:54:23.182Z,6.10
2019-05-10T09:55:20.491Z,5.90
2019-05-10T09:56:20.466Z,5.90
2019-05-10T09:57:20.459Z,5.90
2019-05-10T09:58:22.228Z,6.00
2019-05-10T09:59:20.402Z,6.30
2019-05-10T10:00:20.388Z,6.00
2019-05-10T10:01:21.854Z,5.90
2019-05-10T10:02:20.346Z,6.20
2019-05-10T10:03:20.341Z,6.30
2019-05-10T10:04:20.574Z,6.60
2019-05-10T10:05:20.297Z,6.20
2019-05-10T10:06:20.333Z,6.20
2019-05-10T10:07:24.181Z,6.60
2019-05-10T10:08:20.256Z,6.80
2019-05-10T10:09:24.507Z,6.50
2019-05-10T10:10:28.595Z,6.70
2019-05-10T10:11:20.193Z,6.90
2019-05-10T10:14:02.456Z,6.20
2019-05-10T10:15:02.317Z,6.40
2019-05-10T10:16:04.159Z,7.00
2019-05-10T10:17:03.300Z,7.20
2019-05-10T10:18:02.261Z,7.30
2019-05-10T10:19:02.245Z,7.60
2019-05-10T10:20:02.242Z,7.60
2019-05-10T10:21:02.209Z,7.70
2019-05-10T10:22:05.472Z,7.90
2019-05-10T10:23:02.170Z,7.80
2019-05-10T10:24:14.494Z,7.90
2019-05-10T10:25:02.133Z,8.10
2019-05-10T10:26:02.143Z,8.50
2019-05-10T10:27:02.108Z,8.80
2019-05-10T10:28:02.080Z,8.40
2019-05-10T10:29:02.058Z,8.20
2019-05-10T10:30:06.691Z,8.80
2019-05-10T10:31:05.245Z,8.60
2019-05-10T10:32:02.033Z,9.10
2019-05-10T10:33:05.752Z,9.20
2019-05-10T10:34:03.132Z,9.20
2019-05-10T10:35:01.953Z,9.50
2019-05-10T10:36:07.641Z,9.10
2019-05-10T10:37:01.943Z,9.50
2019-05-10T10:38:03.118Z,9.40
2019-05-10T10:40:44.884Z,8.80
2019-05-10T10:41:43.819Z,8.60
2019-05-10T10:42:43.834Z,7.80
2019-05-10T10:43:43.801Z,6.90
2019-05-10T10:44:43.771Z,7.70
2019-05-10T10:45:43.752Z,6.90
2019-05-10T10:46:43.736Z,6.70
2019-05-10T10:47:43.715Z,6.50
2019-05-10T10:48:48.907Z,6.10
2019-05-10T10:49:43.688Z,6.10
2019-05-10T10:50:53.434Z,5.90
2019-05-10T10:51:43.647Z,6.00
2019-05-10T10:52:43.627Z,6.50
2019-05-10T10:53:43.614Z,6.10
2019-05-10T10:54:43.613Z,6.10
2019-05-10T10:55:46.091Z,6.20
2019-05-10T10:56:43.557Z,5.50
2019-05-10T10:59:25.850Z,5.20
2019-05-10T11:00:27.680Z,5.30
2019-05-10T11:01:33.095Z,5.40
2019-05-10T11:02:32.385Z,5.60
2019-05-10T11:03:30.214Z,5.40
2019-05-10T11:04:25.783Z,5.20
2019-05-10T11:05:25.749Z,5.20
2019-05-10T11:06:25.740Z,5.10
2019-05-10T11:07:25.705Z,4.90
2019-05-10T11:08:25.702Z,5.00
2019-05-10T11:09:25.669Z,4.50
2019-05-10T11:10:25.655Z,4.60
2019-05-10T11:11:30.725Z,4.80
2019-05-10T11:12:25.621Z,4.60
2019-05-10T11:13:41.342Z,4.40
2019-05-10T11:14:25.602Z,4.90
2019-05-10T11:15:28.235Z,4.20
2019-05-10T11:16:25.546Z,4.40
2019-05-10T11:17:25.543Z,4.40
2019-05-10T11:18:25.510Z,4.40
2019-05-10T11:19:25.498Z,4.60
2019-05-10T11:20:25.481Z,4.50
2019-05-10T11:21:28.756Z,4.60
2019-05-10T11:22:27.381Z,4.80
2019-05-10T11:23:34.122Z,4.20
2019-05-10T11:24:25.404Z,3.80
2019-05-10T11:25:25.381Z,4.10
2019-05-10T11:26:26.805Z,4.10
2019-05-10T11:27:25.364Z,4.00
2019-05-10T11:28:32.028Z,3.60
2019-05-10T11:29:27.863Z,4.10
2019-05-10T11:30:25.297Z,3.70
2019-05-10T11:31:25.281Z,3.80
2019-05-10T11:32:25.264Z,3.60
2019-05-10T11:33:29.901Z,3.60
2019-05-10T11:34:29.358Z,4.30
2019-05-10T11:35:30.503Z,3.80
2019-05-10T11:36:25.186Z,3.90
2019-05-10T11:37:30.860Z,4.00
2019-05-10T11:38:25.175Z,3.70
2019-05-10T11:39:26.771Z,4.20
2019-05-10T11:40:30.634Z,3.90
2019-05-10T11:41:25.094Z,3.70
2019-05-10T11:42:25.090Z,4.00
2019-05-10T11:43:27.071Z,3.90
2019-05-10T11:44:25.959Z,4.10
2019-05-10T11:45:26.253Z,3.70
2019-05-10T11:46:27.804Z,3.60
2019-05-10T11:47:27.171Z,3.90
2019-05-10T11:48:28.951Z,3.90
2019-05-10T11:49:24.968Z,3.70
2019-05-10T11:50:31.273Z,3.90
2019-05-10T11:51:24.915Z,3.80
2019-05-10T11:52:29.239Z,3.40
2019-05-10T11:53:24.883Z,3.80
2019-05-10T11:54:24.858Z,3.90
2019-05-10T11:55:24.846Z,3.60
2019-05-10T11:56:27.544Z,3.70
2019-05-10T11:57:24.809Z,3.60
2019-05-10T11:58:24.808Z,3.80
2019-05-10T11:59:27.266Z,3.80
2019-05-10T12:00:31.348Z,3.60
2019-05-10T12:01:24.740Z,3.60
2019-05-10T12:02:37.340Z,3.80
2019-05-10T12:03:24.706Z,3.40
2019-05-10T12:04:36.403Z,3.40
2019-05-10T12:05:26.767Z,3.80
2019-05-10T12:06:24.646Z,3.90
2019-05-10T12:07:35.223Z,4.10
2019-05-10T12:08:24.614Z,4.00
2019-05-10T12:09:24.646Z,3.90
2019-05-10T12:10:25.663Z,3.40
2019-05-10T12:11:32.904Z,3.60
2019-05-10T12:12:45.254Z,4.10
2019-05-10T12:13:25.193Z,4.20
2019-05-10T12:14:24.504Z,4.20
2019-05-10T12:15:25.606Z,3.80
2019-05-10T12:16:24.486Z,3.70
2019-05-10T12:17:24.514Z,3.60
2019-05-10T12:18:26.877Z,3.60
2019-05-10T12:19:24.421Z,3.60
2019-05-10T12:21:24.404Z,3.60
2019-05-10T12:22:32.092Z,3.60
2019-05-10T12:24:39.013Z,3.50
2019-05-10T12:25:41.957Z,3.70
2019-05-10T12:26:12.077Z,3.70
2019-05-10T12:26:27.896Z,3.70
2019-05-10T12:27:29.333Z,3.10
2019-05-10T12:28:28.786Z,3.20
2019-05-10T12:29:24.246Z,3.40
2019-05-10T12:30:24.235Z,3.30
2019-05-10T12:31:24.242Z,3.30
2019-05-10T12:32:27.146Z,3.50
2019-05-10T12:33:27.320Z,3.20
2019-05-10T12:34:24.177Z,2.90
2019-05-10T12:35:26.551Z,3.10
2019-05-10T12:36:27.479Z,3.50
2019-05-10T12:37:24.149Z,3.60
2019-05-10T12:38:29.533Z,3.30
2019-05-10T12:39:24.082Z,3.30
2019-05-10T12:40:24.444Z,3.10
2019-05-10T12:41:24.087Z,2.70
2019-05-10T12:42:24.054Z,3.00
2019-05-10T12:43:24.022Z,2.90
2019-05-10T12:44:24.022Z,3.20
2019-05-10T12:45:23.990Z,2.80
2019-05-10T12:46:24.014Z,3.40
2019-05-10T12:47:23.966Z,3.50
2019-05-10T12:48:23.951Z,3.40
2019-05-10T12:49:23.989Z,3.20
2019-05-10T12:50:23.925Z,3.00
2019-05-10T12:51:23.897Z,3.10
2019-05-10T12:52:28.658Z,2.90
2019-05-10T12:53:23.864Z,3.30
2019-05-10T12:54:25.455Z,2.70
2019-05-10T12:55:23.836Z,2.80
2019-05-10T12:56:23.909Z,2.90
2019-05-10T12:57:23.834Z,3.10
2019-05-10T12:58:23.797Z,3.10
2019-05-10T12:59:23.783Z,3.10
2019-05-10T13:00:23.768Z,2.90
2019-05-10T13:01:25.534Z,2.90
2019-05-10T13:02:23.742Z,2.90
2019-05-10T13:03:25.182Z,3.00
2019-05-10T13:04:39.410Z,2.90
2019-05-10T13:05:30.668Z,2.90
2019-05-10T13:06:23.690Z,3.00
2019-05-10T13:07:23.681Z,3.00
2019-05-10T13:08:23.672Z,2.60
2019-05-10T13:09:38.279Z,2.60
2019-05-10T13:10:23.687Z,2.60
2019-05-10T13:11:25.320Z,2.70
2019-05-10T13:12:23.631Z,2.50
2019-05-10T13:13:29.292Z,2.50
2019-05-10T13:14:23.599Z,2.70
2019-05-10T13:15:24.709Z,3.20
2019-05-10T13:16:23.601Z,2.70
2019-05-10T13:17:23.559Z,2.80
2019-05-10T13:18:48.093Z,2.80
2019-05-10T13:19:23.545Z,2.60
2019-05-10T13:20:23.521Z,2.50
2019-05-10T13:21:23.527Z,2.50
2019-05-10T13:22:23.503Z,2.50
2019-05-10T13:23:23.488Z,2.50